Latest Weather Observations for Cummins Airport

IDS60801

Issued at 2:32 pm CDT Saturday 7 March 2015 (issued every 30 minutes, with the page automatically refreshed every 10 minutes)

About weather observations | Map of weather stations | Latest weather observations for SA | Other Formats
Station Details ID: 018217 Name: CUMMINS AERO Lat: -34.25 Lon: 135.71 Height: 60.11 m
Data from the previous 72 hours. | See also: Recent months at Cummins Airport
Date/Time
CDT
Temp
°C
App
Temp
°C
Dew
Point
Rel
Hum
%
Delta-T
°C
Wind Press
QNH
hPa
Press
MSL
hPa
Rain
since 9 am
mm
Dir
 
Spd
km/h
Gust
km/h
Spd
kts
Gust
kts
07/02:30pm 22.5 18.9 10.6 47 6.6 WSW 20 33 11 18 1015.6 1015.4 0.0
07/02:00pm 23.2 19.1 11.6 48 6.5 WSW 24 35 13 19 1015.5 1015.3 0.0
07/01:30pm 23.1 20.2 10.9 46 6.8 WSW 17 30 9 16 1015.5 1015.3 0.0
07/01:00pm 23.2 20.6 10.6 45 7.0 SSW 15 24 8 13 1015.9 1015.7 0.0
07/12:30pm 22.9 21.1 10.7 46 6.7 SW 11 20 6 11 1016.6 1016.4 0.0
07/12:00pm 21.2 19.8 11.0 52 5.6 ESE 9 15 5 8 1016.8 1016.6 0.0
07/11:30am 20.7 18.2 11.1 54 5.3 WSW 15 26 8 14 1017.3 1017.1 0.0
07/11:00am 19.6 18.0 11.6 60 4.4 SW 11 17 6 9 1017.6 1017.4 0.0
07/10:30am 18.8 17.8 12.3 66 3.6 SSW 9 13 5 7 1017.4 1017.2 0.0
07/10:00am 18.0 17.5 13.9 77 2.3 WSW 9 13 5 7 1017.4 1017.2 0.0
07/09:30am 17.1 16.9 14.6 85 1.4 WSW 9 13 5 7 1017.4 1017.2 0.0
07/09:00am 16.5 16.7 14.7 89 1.0 WNW 7 9 4 5 1017.3 1017.1 -
07/08:30am 16.1 16.3 14.6 91 0.9 NW 7 7 4 4 1017.3 1017.1 -
07/08:00am 15.6 17.0 14.3 92 0.7 CALM 0 0 0 0 1017.2 1017.0 -
07/07:30am 15.4 15.6 14.3 93 0.6 SSW 6 17 3 9 1016.9 1016.7 -
07/07:00am 15.5 14.8 14.4 93 0.6 SW 11 15 6 8 1016.5 1016.3 -
07/06:30am 15.8 13.1 14.5 92 0.7 SW 22 30 12 16 1016.3 1016.1 -
07/06:00am 17.6 15.9 12.3 71 2.9 SW 13 17 7 9 1016.1 1015.9 -
07/05:30am 17.5 14.5 11.8 69 3.1 SW 19 24 10 13 1015.8 1015.6 -
07/05:00am 17.5 14.3 11.8 69 3.1 SSW 20 26 11 14 1015.8 1015.6 -
07/04:30am 17.6 15.0 12.1 70 3.0 SSW 17 20 9 11 1016.0 1015.8 -
07/04:00am 17.5 14.5 12.0 70 3.0 SSW 19 22 10 12 1015.9 1015.7 -
07/03:30am 17.4 16.0 12.3 72 2.8 SW 11 13 6 7 1016.2 1016.0 -
07/03:00am 17.4 16.7 12.1 71 2.9 SW 7 9 4 5 1016.6 1016.4 0.0
07/02:30am 17.2 16.1 11.9 71 2.9 WSW 9 11 5 6 1016.7 1016.5 -
07/02:00am 17.2 14.6 11.9 71 2.9 SSW 17 20 9 11 1017.0 1016.8 -
07/01:30am 17.2 15.4 12.1 72 2.8 SSW 13 22 7 12 1017.3 1017.1 -
07/01:00am 16.8 14.9 11.9 73 2.7 SW 13 15 7 8 1017.4 1017.2 -
07/12:30am 16.7 15.5 11.6 72 2.8 SSW 9 13 5 7 1017.8 1017.6 -
07/12:00am 17.0 14.3 11.7 71 2.9 SSW 17 22 9 12 1017.7 1017.5 -
 
Date/Time
CDT
Temp
°C
App
Temp
°C
Dew
Point
Rel
Hum
%
Delta-T
°C
Wind Press
QNH
hPa
Press
MSL
hPa
Rain
since 9 am
mm
Dir
 
Spd
km/h
Gust
km/h
Spd
kts
Gust
kts
06/11:30pm 16.7 14.8 11.8 73 2.7 SSW 13 15 7 8 1018.1 1017.9 -
06/11:00pm 16.3 14.6 11.2 72 2.7 W 11 13 6 7 1018.7 1018.5 -
06/10:30pm 16.0 13.9 11.0 72 2.7 SSW 13 13 7 7 1018.3 1018.1 -
06/10:00pm 16.5 14.4 11.0 70 3.0 SSW 13 17 7 9 1018.2 1018.0 -
06/09:30pm 16.9 14.1 11.2 69 3.1 SSW 17 20 9 11 1018.0 1017.8 -
06/09:00pm 16.7 14.6 11.2 70 3.0 SW 13 17 7 9 1018.1 1017.9 0.0
06/08:30pm 17.2 13.8 11.2 68 3.2 SW 20 26 11 14 1018.0 1017.8 -
06/08:00pm 17.9 13.7 11.2 65 3.6 SW 24 30 13 16 1017.8 1017.6 -
06/07:30pm 18.6 14.4 11.2 62 4.0 SW 24 32 13 17 1017.7 1017.5 -
06/07:00pm 19.1 14.8 10.9 59 4.5 SW 24 30 13 16 1017.6 1017.4 -
06/06:30pm 19.9 14.9 10.9 56 4.9 SW 28 37 15 20 1017.7 1017.5 -
06/06:00pm 21.1 16.0 10.6 51 5.7 SW 28 35 15 19 1017.6 1017.4 -
06/05:30pm 22.6 17.5 10.7 47 6.6 SW 28 37 15 20 1017.4 1017.2 -
06/05:00pm 23.1 18.1 10.9 46 6.8 SW 28 41 15 22 1017.2 1017.0 -
06/04:30pm 23.8 19.5 10.8 44 7.2 SW 24 35 13 19 1017.1 1016.9 -
06/04:00pm 23.8 18.8 10.8 44 7.2 SW 28 37 15 20 1017.5 1017.3 -
06/03:30pm 24.3 20.0 10.6 42 7.6 SW 24 33 13 18 1017.7 1017.5 -
06/03:11pm 24.4 20.2 11.0 43 7.5 SW 24 43 13 23 1017.8 1017.6 -
06/03:00pm 24.3 20.8 10.2 41 7.8 SSW 19 32 10 17 1018.0 1017.8 -
06/02:30pm 24.6 21.2 10.5 41 7.8 SW 19 26 10 14 1018.2 1018.0 -
06/01:30pm 23.6 21.2 9.9 42 7.5 SSW 13 30 7 16 1019.1 1018.9 0.0
06/01:00pm 22.9 19.7 10.0 44 7.1 SW 17 24 9 13 1019.5 1019.3 0.0
06/12:30pm 22.1 19.2 9.6 45 6.7 SW 15 24 8 13 1020.1 1019.9 0.0
06/12:00pm 22.1 19.6 9.6 45 6.7 SW 13 22 7 12 1020.3 1020.1 0.0
06/11:30am 20.9 17.7 9.8 49 6.0 SSE 17 24 9 13 1020.5 1020.3 0.0
06/11:00am 20.4 16.7 9.6 50 5.8 S 19 24 10 13 1020.8 1020.6 0.0
06/10:30am 19.1 15.5 9.9 55 4.9 S 19 30 10 16 1021.0 1020.8 0.0
06/10:00am 18.2 14.2 10.3 60 4.2 SSW 22 32 12 17 1021.0 1020.8 0.0
06/09:30am 17.2 14.4 10.1 63 3.8 S 15 24 8 13 1021.1 1021.0 0.0
06/09:00am 14.0 13.5 9.4 74 2.3 N 2 11 1 6 1021.1 1021.0 0.0
06/08:30am 10.8 9.4 7.3 79 1.7 NE 4 6 2 3 1021.1 1021.0 0.0
06/08:00am 8.4 5.8 6.2 86 1.0 N 9 11 5 6 1020.9 1020.7 0.0
06/07:30am 7.9 7.0 6.0 88 0.9 CALM 0 0 0 0 1020.8 1020.6 0.0
06/07:00am 7.4 5.2 5.2 86 1.0 E 6 9 3 5 1020.9 1020.7 0.0
06/06:30am 7.4 6.2 4.7 83 1.2 CALM 0 0 0 0 1020.7 1020.5 0.0
06/06:00am 9.4 8.7 6.8 84 1.2 CALM 0 0 0 0 1020.8 1020.6 0.0
06/05:30am 10.2 9.6 7.3 82 1.4 CALM 0 0 0 0 1021.0 1020.8 0.0
06/05:00am 10.1 9.5 7.3 83 1.3 CALM 0 0 0 0 1021.3 1021.2 0.0
06/04:30am 9.5 8.8 7.1 85 1.1 CALM 0 0 0 0 1021.6 1021.5 0.0
06/04:00am 8.5 6.4 6.5 87 0.9 NNE 7 9 4 5 1021.9 1021.8 0.0
06/03:30am 7.2 4.9 5.0 86 1.0 N 6 7 3 4 1021.9 1021.8 0.0
06/03:00am 8.1 6.7 5.4 83 1.2 NW 2 7 1 4 1022.2 1022.1 0.0
06/02:30am 9.8 7.8 7.1 83 1.3 WSW 7 7 4 4 1022.4 1022.3 0.0
06/02:00am 9.7 6.8 6.6 81 1.5 W 11 13 6 7 1022.8 1022.7 0.0
06/01:30am 9.8 7.2 6.3 79 1.6 WSW 9 11 5 6 1023.0 1022.9 0.0
06/01:00am 11.9 8.6 8.0 77 1.9 S 15 17 8 9 1023.2 1023.1 0.0
06/12:30am 12.1 9.1 7.8 75 2.1 S 13 17 7 9 1023.1 1023.0 0.0
06/12:00am 12.7 9.0 8.0 73 2.3 S 17 20 9 11 1023.3 1023.2 0.0
 
Date/Time
CDT
Temp
°C
App
Temp
°C
Dew
Point
Rel
Hum
%
Delta-T
°C
Wind Press
QNH
hPa
Press
MSL
hPa
Rain
since 9 am
mm
Dir
 
Spd
km/h
Gust
km/h
Spd
kts
Gust
kts
05/11:30pm 12.5 8.8 7.8 73 2.3 S 17 20 9 11 1023.5 1023.4 0.0
05/11:00pm 12.4 9.0 7.5 72 2.4 S 15 19 8 10 1023.8 1023.7 0.0
05/10:30pm 12.9 9.9 7.6 70 2.6 S 13 19 7 10 1024.0 1023.9 0.0
05/10:00pm 13.2 10.2 7.6 69 2.8 S 13 17 7 9 1024.0 1023.9 0.0
05/09:30pm 14.2 10.1 7.7 65 3.2 S 19 26 10 14 1023.7 1023.6 0.0
05/09:00pm 15.0 10.3 7.8 62 3.6 S 22 28 12 15 1023.5 1023.4 0.0
05/08:30pm 15.7 11.5 7.5 58 4.1 S 19 28 10 15 1023.2 1023.1 0.0
05/08:00pm 16.8 11.6 7.2 53 4.8 S 24 30 13 16 1022.9 1022.8 0.0
05/07:30pm 18.6 14.1 7.1 47 5.8 SSE 20 28 11 15 1022.7 1022.6 0.0
05/07:00pm 19.4 15.0 7.5 46 6.1 SSE 20 28 11 15 1022.4 1022.3 0.0
05/06:30pm 20.0 15.6 7.4 44 6.4 SSE 20 32 11 17 1022.1 1022.0 0.0
05/06:00pm 20.6 16.2 7.2 42 6.8 SSE 20 28 11 15 1022.1 1022.0 0.0
05/05:30pm 21.0 16.5 6.9 40 7.2 SE 20 28 11 15 1021.7 1021.6 0.0
05/05:00pm 21.6 16.7 7.1 39 7.5 SSE 22 32 12 17 1021.7 1021.6 0.0
05/04:30pm 22.3 17.6 6.1 35 8.2 SE 20 28 11 15 1021.9 1021.8 0.0
05/04:00pm 21.4 17.6 5.7 36 7.9 SE 15 24 8 13 1022.3 1022.2 0.0
05/03:30pm 21.9 18.1 5.8 35 8.1 SSE 15 26 8 14 1022.7 1022.6 0.0
05/03:00pm 21.9 17.3 6.6 37 7.8 SE 20 28 11 15 1023.0 1022.9 0.0
05/02:30pm 22.2 17.9 8.0 40 7.4 ESE 20 30 11 16 1023.1 1023.0 0.0
05/02:00pm 20.5 16.3 7.5 43 6.7 SE 19 26 10 14 1023.3 1023.2 0.0
05/01:30pm 21.6 17.5 7.8 41 7.2 SSE 19 30 10 16 1023.6 1023.5 0.0
05/01:00pm 20.5 16.0 6.8 41 7.0 SE 20 32 11 17 1024.0 1023.9 0.0
05/12:30pm 20.7 16.1 6.6 40 7.1 SE 20 32 11 17 1024.2 1024.1 0.0
05/12:00pm 19.9 14.6 7.0 43 6.5 SE 24 37 13 20 1024.4 1024.3 0.0
05/11:30am 19.4 14.3 7.8 47 5.9 SSE 24 35 13 19 1024.5 1024.4 0.0
05/11:00am 19.6 14.8 8.9 50 5.6 SSE 24 33 13 18 1024.6 1024.5 0.0
05/10:30am 17.9 12.9 8.2 53 5.0 S 24 37 13 20 1024.3 1024.2 0.0
05/10:00am 17.9 13.2 7.6 51 5.2 SSE 22 32 12 17 1024.3 1024.2 0.0
05/09:30am 16.9 11.5 8.1 56 4.5 S 26 35 14 19 1024.2 1024.1 0.0
05/09:00am 15.6 13.1 9.7 68 3.1 SSW 13 19 7 10 1024.0 1023.9 0.0
05/08:30am 13.9 12.4 10.5 80 1.8 SSW 9 9 5 5 1023.5 1023.4 0.0
05/08:00am 12.8 11.5 10.0 83 1.4 S 7 9 4 5 1023.1 1023.0 0.0
05/07:30am 11.8 9.8 10.0 89 0.9 SSW 11 13 6 7 1023.0 1022.9 0.0
05/07:00am 12.5 11.0 10.6 88 1.0 SW 9 11 5 6 1023.0 1022.9 0.0
05/06:30am 12.4 10.1 10.6 89 0.9 SSW 13 15 7 8 1022.3 1022.2 0.0
05/06:00am 12.7 10.9 10.9 89 0.9 SSW 11 11 6 6 1022.1 1022.0 0.0
05/05:30am 13.1 11.5 11.5 90 0.8 SSW 11 15 6 8 1021.9 1021.8 0.0
05/05:00am 13.8 12.8 12.4 91 0.8 SW 9 11 5 6 1021.6 1021.5 0.0
05/04:30am 14.2 13.7 12.6 90 0.9 SSW 7 9 4 5 1021.8 1021.7 0.0
05/04:00am 14.8 13.3 13.2 90 0.9 SSW 13 17 7 9 1021.5 1021.4 0.0
05/03:30am 15.1 14.2 13.6 91 0.8 SSW 11 13 6 7 1021.4 1021.3 0.0
05/03:00am 15.6 14.4 14.0 90 0.9 SSW 13 17 7 9 1021.5 1021.4 0.0
05/02:30am 15.7 13.8 14.1 90 0.9 SSW 17 22 9 12 1021.7 1021.6 0.0
05/02:00am 15.7 13.0 14.6 93 0.6 SW 22 33 12 18 1022.0 1021.9 0.0
05/01:30am 16.2 12.3 14.4 89 1.0 SW 28 39 15 21 1021.8 1021.7 0.0
05/01:07am 17.5 14.4 14.6 83 1.7 SW 24 44 13 24 1021.7 1021.6 0.0
05/01:00am 17.7 16.0 13.6 77 2.3 SW 15 26 8 14 1021.6 1021.5 0.0
05/12:30am 17.3 15.3 14.0 81 1.9 WSW 17 20 9 11 1021.5 1021.4 0.0
05/12:00am 17.0 15.2 13.3 79 2.1 W 15 19 8 10 1021.7 1021.6 0.0
 
Date/Time
CDT
Temp
°C
App
Temp
°C
Dew
Point
Rel
Hum
%
Delta-T
°C
Wind Press
QNH
hPa
Press
MSL
hPa
Rain
since 9 am
mm
Dir
 
Spd
km/h
Gust
km/h
Spd
kts
Gust
kts
04/11:30pm 16.9 14.5 12.6 76 2.4 W 17 19 9 10 1021.6 1021.5 0.0
04/11:00pm 17.9 15.1 12.6 71 3.0 WSW 19 24 10 13 1021.3 1021.2 0.0
04/10:30pm 18.1 14.6 13.4 74 2.7 WSW 24 32 13 17 1021.2 1021.1 0.0
04/10:00pm 18.3 15.1 13.0 71 3.0 WSW 22 28 12 15 1021.0 1020.8 0.0
04/09:30pm 18.5 15.1 12.5 68 3.3 WSW 22 32 12 17 1020.7 1020.5 0.0
04/09:00pm 18.5 15.0 12.3 67 3.4 WSW 22 32 12 17 1020.5 1020.3 0.0
04/08:30pm 18.7 14.5 12.5 67 3.5 WSW 26 35 14 19 1020.5 1020.3 0.0
04/08:00pm 18.7 13.7 12.2 66 3.6 WSW 30 37 16 20 1020.0 1019.8 0.0
04/07:30pm 19.1 14.5 11.2 60 4.3 WSW 26 35 14 19 1019.5 1019.3 0.0
04/07:00pm 19.2 14.2 11.0 59 4.5 WSW 28 37 15 20 1019.5 1019.3 0.0
04/06:30pm 19.6 14.3 10.0 54 5.1 WSW 28 37 15 20 1019.3 1019.1 0.0
04/06:00pm 20.0 14.2 10.7 55 5.1 WSW 32 41 17 22 1019.0 1018.8 0.0
04/05:30pm 20.7 15.2 10.5 52 5.5 WSW 30 41 16 22 1018.9 1018.7 0.0
04/05:01pm 22.0 17.2 10.2 47 6.4 WSW 26 46 14 25 1018.7 1018.5 0.0
04/05:00pm 22.6 17.9 10.7 47 6.6 WSW 26 46 14 25 1018.8 1018.6 0.0
04/04:30pm 21.3 15.3 10.8 51 5.8 W 33 44 18 24 1018.8 1018.6 0.0
04/04:00pm 22.2 16.6 10.0 46 6.6 WSW 30 44 16 24 1018.9 1018.7 0.0
04/03:30pm 22.5 17.3 9.0 42 7.2 SW 26 48 14 26 1018.9 1018.7 0.0
04/03:00pm 23.0 18.1 9.8 43 7.2 WSW 26 33 14 18 1019.2 1019.0 0.0

Other Formats:

Comma delimited format used in spreadsheet applications
http://www.bom.gov.au/fwo/IDS60801/IDS60801.95663.axf

JavaScript Object Notation format (JSON) in row-major order
http://www.bom.gov.au/fwo/IDS60801/IDS60801.95663.json